createdAt,value
2018-06-30T00:00:42.798Z,4.10
2018-06-30T00:03:12.854Z,4.20
2018-06-30T00:05:43.107Z,3.87
2018-06-30T00:08:13.299Z,4.07
2018-06-30T00:10:43.331Z,4.08
2018-06-30T00:13:13.497Z,4.05
2018-06-30T00:15:43.539Z,3.67
2018-06-30T00:18:13.613Z,4.00
2018-06-30T00:20:43.641Z,3.92
2018-06-30T00:23:13.673Z,4.10
2018-06-30T00:25:43.685Z,3.90
2018-06-30T00:28:13.801Z,3.85
2018-06-30T00:30:43.865Z,4.00
2018-06-30T00:33:13.501Z,4.08
2018-06-30T00:35:43.546Z,3.85
2018-06-30T00:38:13.641Z,4.10
2018-06-30T00:40:43.617Z,3.92
2018-06-30T00:43:13.695Z,3.90
2018-06-30T00:45:43.753Z,3.98
2018-06-30T00:48:13.901Z,3.92
2018-06-30T00:50:44.291Z,4.15
2018-06-30T00:53:14.491Z,3.77
2018-06-30T00:55:44.547Z,4.00
2018-06-30T00:58:14.604Z,3.87
2018-06-30T01:00:44.651Z,3.98
2018-06-30T01:03:14.774Z,3.80
2018-06-30T01:05:44.405Z,3.72
2018-06-30T01:08:14.459Z,4.20
2018-06-30T01:10:45.366Z,3.90
2018-06-30T01:13:15.402Z,3.72
2018-06-30T01:15:45.415Z,3.80
2018-06-30T01:18:15.446Z,3.92
2018-06-30T01:20:45.476Z,3.55
2018-06-30T01:23:15.626Z,4.30
2018-06-30T01:25:45.643Z,3.90
2018-06-30T01:28:15.683Z,3.77
2018-06-30T01:30:45.689Z,3.90
2018-06-30T01:33:15.696Z,3.70
2018-06-30T01:35:45.739Z,3.77
2018-06-30T01:38:15.790Z,3.83
2018-06-30T01:40:45.827Z,4.00
2018-06-30T01:43:15.856Z,3.77
2018-06-30T01:45:45.891Z,3.73
2018-06-30T01:48:15.892Z,3.90
2018-06-30T01:50:45.919Z,3.80
2018-06-30T01:53:15.975Z,3.62
2018-06-30T01:55:46.142Z,3.90
2018-06-30T01:58:16.173Z,4.10
2018-06-30T02:00:46.194Z,3.80
2018-06-30T02:03:16.223Z,3.90
2018-06-30T02:05:46.256Z,4.00
2018-06-30T02:08:16.524Z,3.65
2018-06-30T02:10:46.562Z,3.75
2018-06-30T02:13:16.645Z,3.60
2018-06-30T02:15:46.678Z,3.92
2018-06-30T02:18:16.734Z,3.90
2018-06-30T02:20:46.754Z,4.10
2018-06-30T02:23:16.888Z,3.70
2018-06-30T02:25:46.900Z,3.98
2018-06-30T02:28:16.930Z,4.00
2018-06-30T02:30:47.011Z,3.98
2018-06-30T02:33:17.027Z,3.80
2018-06-30T02:35:47.056Z,3.70
2018-06-30T02:38:16.640Z,3.87
2018-06-30T02:40:46.850Z,3.60
2018-06-30T02:43:16.836Z,4.10
2018-06-30T02:45:46.903Z,4.00
2018-06-30T02:48:16.921Z,3.70
2018-06-30T02:50:46.987Z,3.80
2018-06-30T02:53:17.004Z,3.65
2018-06-30T02:55:47.043Z,4.00
2018-06-30T02:58:17.096Z,3.80
2018-06-30T03:00:47.221Z,4.03
2018-06-30T03:03:17.234Z,3.70
2018-06-30T03:05:47.268Z,3.90
2018-06-30T03:08:17.382Z,3.90
2018-06-30T03:10:47.502Z,3.77
2018-06-30T03:13:17.584Z,4.00
2018-06-30T03:15:47.664Z,4.00
2018-06-30T03:18:17.749Z,3.85
2018-06-30T03:20:47.786Z,4.00
2018-06-30T03:23:17.843Z,3.90
2018-06-30T03:25:47.573Z,3.90
2018-06-30T03:28:17.606Z,3.80
2018-06-30T03:30:47.752Z,4.33
2018-06-30T03:33:17.765Z,3.95
2018-06-30T03:35:47.812Z,3.95
2018-06-30T03:38:17.841Z,4.25
2018-06-30T03:40:47.925Z,4.00
2018-06-30T03:43:17.957Z,4.33
2018-06-30T03:45:48.031Z,4.40
2018-06-30T03:48:18.040Z,4.42
2018-06-30T03:50:48.105Z,4.40
2018-06-30T03:53:18.122Z,4.28
2018-06-30T03:55:48.274Z,4.50
2018-06-30T03:58:18.287Z,4.40
2018-06-30T04:00:48.318Z,4.60
2018-06-30T04:03:18.527Z,4.53
2018-06-30T04:05:48.576Z,4.33
2018-06-30T04:08:18.635Z,4.67
2018-06-30T04:10:48.695Z,4.40
2018-06-30T04:13:18.729Z,4.58
2018-06-30T04:15:48.834Z,4.40
2018-06-30T04:18:18.856Z,4.62
2018-06-30T04:20:48.939Z,4.50
2018-06-30T04:23:18.957Z,4.03
2018-06-30T04:25:48.564Z,4.35
2018-06-30T04:28:18.594Z,4.40
2018-06-30T04:30:48.639Z,4.08
2018-06-30T04:33:18.642Z,4.20
2018-06-30T04:35:48.656Z,3.90
2018-06-30T04:38:18.709Z,4.17
2018-06-30T04:40:48.807Z,4.22
2018-06-30T04:43:18.839Z,3.98
2018-06-30T04:45:48.936Z,3.80
2018-06-30T04:48:19.022Z,4.08
2018-06-30T04:50:49.081Z,3.70
2018-06-30T04:53:19.080Z,3.83
2018-06-30T04:55:49.117Z,3.50
2018-06-30T04:58:19.366Z,3.30
2018-06-30T05:00:49.392Z,3.22
2018-06-30T05:03:18.996Z,3.00
2018-06-30T05:05:49.053Z,3.22
2018-06-30T05:08:19.221Z,3.15
2018-06-30T05:10:49.259Z,3.20
2018-06-30T05:13:18.886Z,3.10
2018-06-30T05:15:48.963Z,3.00
2018-06-30T05:18:19.011Z,2.90
2018-06-30T05:20:49.080Z,2.85
2018-06-30T05:23:19.074Z,2.98
2018-06-30T05:25:49.142Z,3.20
2018-06-30T05:28:19.202Z,3.22
2018-06-30T05:30:49.222Z,2.93
2018-06-30T05:33:18.970Z,3.00
2018-06-30T05:35:48.925Z,2.80
2018-06-30T05:38:19.006Z,2.50
2018-06-30T05:40:49.379Z,2.98
2018-06-30T05:43:19.526Z,2.60
2018-06-30T05:45:49.164Z,2.57
2018-06-30T05:48:19.225Z,2.70
2018-06-30T05:50:49.286Z,2.62
2018-06-30T05:53:19.064Z,2.70
2018-06-30T05:55:49.049Z,2.90
2018-06-30T05:58:19.108Z,2.80
2018-06-30T06:00:49.208Z,2.40
2018-06-30T06:03:19.287Z,2.60
2018-06-30T06:05:48.926Z,2.60
2018-06-30T06:08:19.223Z,2.60
2018-06-30T06:10:48.837Z,2.60
2018-06-30T06:13:18.521Z,2.40
2018-06-30T06:15:48.604Z,2.70
2018-06-30T06:18:18.678Z,2.33
2018-06-30T06:20:48.714Z,2.65
2018-06-30T06:23:18.806Z,2.60
2018-06-30T06:25:48.841Z,2.40
2018-06-30T06:28:18.547Z,2.60
2018-06-30T06:30:48.610Z,2.85
2018-06-30T06:33:18.684Z,2.95
2018-06-30T06:35:48.763Z,2.67
2018-06-30T06:38:18.833Z,2.77
2018-06-30T06:40:49.406Z,2.87
2018-06-30T06:43:20.500Z,2.90
2018-06-30T06:45:50.647Z,2.72
2018-06-30T06:48:20.761Z,2.87
2018-06-30T06:50:51.683Z,2.62
2018-06-30T06:53:22.159Z,2.60
2018-06-30T06:55:52.255Z,2.65
2018-06-30T06:58:22.362Z,2.50
2018-06-30T07:00:52.480Z,2.70
2018-06-30T07:03:22.594Z,2.40
2018-06-30T07:05:52.707Z,2.27
2018-06-30T07:08:23.064Z,2.12
2018-06-30T07:10:53.226Z,2.37
2018-06-30T07:13:23.360Z,2.22
2018-06-30T07:15:53.432Z,2.50
2018-06-30T07:18:23.552Z,2.30
2018-06-30T07:20:53.646Z,2.37
2018-06-30T07:23:23.767Z,2.40
2018-06-30T07:25:53.953Z,2.60
2018-06-30T07:28:24.059Z,2.40
2018-06-30T07:30:54.233Z,2.52
2018-06-30T07:33:24.389Z,2.47
2018-06-30T07:35:54.506Z,2.40
2018-06-30T07:38:24.631Z,2.40
2018-06-30T07:40:54.791Z,2.30
2018-06-30T07:43:25.151Z,2.30
2018-06-30T07:45:55.191Z,2.55
2018-06-30T07:48:25.331Z,2.50
2018-06-30T07:50:56.306Z,2.40
2018-06-30T07:53:26.387Z,2.50
2018-06-30T07:55:56.471Z,2.37
2018-06-30T07:58:26.595Z,2.30
2018-06-30T08:00:56.783Z,2.42
2018-06-30T08:03:26.883Z,2.70
2018-06-30T08:05:56.994Z,2.30
2018-06-30T08:08:27.118Z,2.58
2018-06-30T08:10:57.211Z,2.52
2018-06-30T08:13:27.318Z,2.42
2018-06-30T08:15:57.397Z,2.70
2018-06-30T08:18:27.552Z,2.33
2018-06-30T08:20:57.707Z,2.60
2018-06-30T08:23:27.905Z,2.57
2018-06-30T08:25:58.006Z,2.60
2018-06-30T08:28:28.150Z,2.60
2018-06-30T08:30:58.227Z,2.77
2018-06-30T08:33:28.439Z,2.60
2018-06-30T08:35:58.547Z,2.65
2018-06-30T08:38:28.667Z,2.67
2018-06-30T08:40:58.808Z,2.62
2018-06-30T08:43:28.941Z,2.33
2018-06-30T08:45:59.042Z,2.30
2018-06-30T08:48:29.152Z,2.40
2018-06-30T08:50:58.907Z,2.45
2018-06-30T08:53:28.954Z,3.05
2018-06-30T08:55:59.111Z,2.30
2018-06-30T08:58:28.755Z,2.50
2018-06-30T09:00:58.864Z,2.62
2018-06-30T09:03:29.012Z,2.50
2018-06-30T09:05:58.651Z,2.70
2018-06-30T09:08:28.862Z,2.60
2018-06-30T09:10:59.006Z,2.90
2018-06-30T09:13:29.080Z,2.90
2018-06-30T09:15:59.153Z,2.87
2018-06-30T09:18:29.174Z,2.80
2018-06-30T09:20:59.343Z,2.58
2018-06-30T09:23:29.399Z,2.90
2018-06-30T09:25:59.506Z,2.92
2018-06-30T09:28:29.603Z,3.10
2018-06-30T09:30:59.657Z,3.20
2018-06-30T09:33:29.740Z,2.70
2018-06-30T09:36:00.013Z,3.00
2018-06-30T09:38:30.098Z,2.98
2018-06-30T09:41:00.217Z,2.98
2018-06-30T09:43:30.327Z,2.92
2018-06-30T09:46:00.470Z,2.87
2018-06-30T09:48:30.564Z,2.70
2018-06-30T09:51:00.694Z,2.72
2018-06-30T09:53:30.820Z,2.40
2018-06-30T09:56:00.517Z,3.00
2018-06-30T09:58:30.527Z,2.70
2018-06-30T10:01:05.617Z,2.83
2018-06-30T10:03:36.308Z,2.80
2018-06-30T10:06:06.845Z,2.70
2018-06-30T10:08:36.563Z,2.57
2018-06-30T10:11:06.767Z,2.70
2018-06-30T10:13:36.842Z,2.50
2018-06-30T10:16:07.074Z,2.30
2018-06-30T10:18:37.140Z,2.47
2018-06-30T10:21:07.302Z,2.37
2018-06-30T10:23:37.365Z,2.50
2018-06-30T10:26:07.611Z,2.08
2018-06-30T10:28:37.702Z,2.40
2018-06-30T10:31:07.822Z,2.37
2018-06-30T10:33:37.885Z,2.20
2018-06-30T10:36:07.985Z,2.40
2018-06-30T10:38:38.053Z,2.60
2018-06-30T10:41:08.376Z,2.22
2018-06-30T10:43:38.495Z,2.00
2018-06-30T10:46:08.230Z,2.27
2018-06-30T10:48:38.332Z,2.33
2018-06-30T10:51:08.580Z,2.13
2018-06-30T10:53:39.030Z,2.27
2018-06-30T10:56:09.230Z,2.02
2018-06-30T10:58:39.363Z,2.27
2018-06-30T11:01:09.556Z,2.10
2018-06-30T11:03:39.655Z,2.10
2018-06-30T11:06:09.792Z,1.97
2018-06-30T11:08:39.930Z,1.80
2018-06-30T11:11:09.722Z,2.00
2018-06-30T11:13:39.806Z,2.00
2018-06-30T11:16:09.957Z,2.00
2018-06-30T11:18:40.088Z,1.80
2018-06-30T11:21:10.191Z,2.00
2018-06-30T11:23:40.359Z,2.10
2018-06-30T11:26:10.472Z,2.07
2018-06-30T11:28:40.688Z,1.80
2018-06-30T11:31:10.878Z,1.50
2018-06-30T11:33:41.014Z,1.80
2018-06-30T11:36:11.112Z,2.00
2018-06-30T11:38:41.250Z,1.77
2018-06-30T11:41:11.369Z,1.80
2018-06-30T11:43:41.467Z,1.90
2018-06-30T11:46:12.059Z,1.85
2018-06-30T11:48:42.211Z,1.92
2018-06-30T11:51:12.367Z,1.85
2018-06-30T11:53:42.550Z,1.92
2018-06-30T11:56:13.173Z,2.10
2018-06-30T11:58:43.267Z,2.10
2018-06-30T12:01:13.331Z,1.97
2018-06-30T12:03:43.461Z,1.80
2018-06-30T12:06:13.620Z,1.90
2018-06-30T12:08:43.779Z,1.80
2018-06-30T12:11:13.871Z,1.98
2018-06-30T12:13:44.018Z,2.12
2018-06-30T12:16:14.082Z,2.25
2018-06-30T12:18:44.245Z,2.00
2018-06-30T12:21:14.398Z,2.07
2018-06-30T12:23:44.491Z,2.00
2018-06-30T12:26:14.599Z,1.92
2018-06-30T12:28:44.658Z,1.80
2018-06-30T12:31:14.751Z,2.00
2018-06-30T12:33:45.563Z,1.90
2018-06-30T12:36:15.661Z,2.02
2018-06-30T12:38:45.773Z,2.35
2018-06-30T12:41:15.964Z,2.08
2018-06-30T12:43:46.110Z,2.10
2018-06-30T12:46:18.018Z,2.10
2018-06-30T12:48:48.125Z,2.20
2018-06-30T12:51:18.298Z,2.10
2018-06-30T12:53:48.444Z,2.10
2018-06-30T12:56:18.513Z,1.90
2018-06-30T12:58:48.658Z,2.10
2018-06-30T13:01:18.776Z,2.20
2018-06-30T13:03:49.016Z,1.90
2018-06-30T13:06:19.048Z,1.87
2018-06-30T13:08:49.214Z,2.10
2018-06-30T13:11:19.356Z,2.12
2018-06-30T13:13:49.405Z,2.20
2018-06-30T13:16:19.457Z,2.03
2018-06-30T13:18:49.618Z,2.10
2018-06-30T13:21:19.687Z,2.20
2018-06-30T13:23:49.871Z,1.95
2018-06-30T13:26:19.977Z,2.00
2018-06-30T13:28:49.762Z,1.85
2018-06-30T13:31:19.800Z,1.90
2018-06-30T13:33:49.957Z,2.00
2018-06-30T13:36:20.060Z,1.90
2018-06-30T13:38:50.195Z,2.02
2018-06-30T13:41:20.325Z,2.05
2018-06-30T13:43:50.485Z,2.10
2018-06-30T13:46:20.724Z,2.00
2018-06-30T13:48:50.843Z,2.00
2018-06-30T13:51:21.252Z,2.10
2018-06-30T13:53:51.328Z,2.05
2018-06-30T13:56:21.390Z,2.10
2018-06-30T13:58:51.501Z,1.80
2018-06-30T14:01:21.571Z,2.08
2018-06-30T14:03:51.798Z,2.00
2018-06-30T14:06:22.071Z,1.92
2018-06-30T14:08:52.203Z,2.12
2018-06-30T14:11:22.330Z,1.90
2018-06-30T14:13:52.717Z,2.10
2018-06-30T14:16:22.955Z,1.92
2018-06-30T14:18:53.061Z,2.15
2018-06-30T14:21:23.152Z,2.20
2018-06-30T14:23:53.282Z,2.00
2018-06-30T14:26:23.336Z,2.05
2018-06-30T14:28:53.189Z,2.00
2018-06-30T14:31:23.336Z,1.87
2018-06-30T14:33:53.509Z,1.97
2018-06-30T14:36:23.686Z,2.40
2018-06-30T14:38:53.816Z,2.10
2018-06-30T14:41:23.890Z,1.92
2018-06-30T14:43:54.055Z,1.90
2018-06-30T14:46:24.197Z,2.10
2018-06-30T14:48:54.262Z,2.02
2018-06-30T14:51:24.468Z,2.17
2018-06-30T14:53:54.115Z,2.10
2018-06-30T14:56:24.230Z,2.22
2018-06-30T14:58:54.560Z,2.33
2018-06-30T15:01:24.794Z,2.08
2018-06-30T15:03:54.890Z,2.12
2018-06-30T15:06:25.084Z,2.10
2018-06-30T15:08:55.191Z,1.92
2018-06-30T15:11:25.364Z,2.10
2018-06-30T15:13:55.081Z,2.00
2018-06-30T15:16:24.865Z,1.92
2018-06-30T15:18:55.500Z,2.00
2018-06-30T15:21:25.659Z,2.20
2018-06-30T15:23:55.727Z,2.10
2018-06-30T15:26:25.782Z,2.30
2018-06-30T15:28:55.487Z,2.27
2018-06-30T15:31:25.568Z,2.37
2018-06-30T15:33:55.687Z,1.98
2018-06-30T15:36:25.909Z,2.10
2018-06-30T15:38:56.010Z,2.10
2018-06-30T15:41:26.092Z,2.22
2018-06-30T15:43:56.228Z,2.50
2018-06-30T15:46:26.436Z,2.10
2018-06-30T15:48:56.620Z,2.20
2018-06-30T15:51:27.095Z,2.00
2018-06-30T15:53:57.267Z,2.50
2018-06-30T15:56:27.482Z,2.60
2018-06-30T15:58:57.941Z,2.35
2018-06-30T16:01:27.971Z,2.47
2018-06-30T16:03:58.061Z,2.10
2018-06-30T16:06:27.790Z,3.05
2018-06-30T16:08:57.868Z,2.30
2018-06-30T16:11:27.941Z,2.40
2018-06-30T16:13:58.104Z,2.50
2018-06-30T16:16:30.100Z,2.53
2018-06-30T16:19:00.160Z,2.77
2018-06-30T16:21:30.262Z,8.43
2018-06-30T16:24:00.313Z,5.40
2018-06-30T16:26:30.553Z,2.58
2018-06-30T16:29:00.618Z,3.00
2018-06-30T16:31:30.348Z,2.52
2018-06-30T16:34:00.400Z,2.53
2018-06-30T16:36:30.838Z,2.65
2018-06-30T16:39:01.023Z,2.58
2018-06-30T16:41:31.156Z,2.70
2018-06-30T16:44:01.193Z,2.72
2018-06-30T16:46:31.366Z,2.60
2018-06-30T16:49:01.547Z,2.60
2018-06-30T16:51:32.079Z,2.90
2018-06-30T16:54:02.212Z,2.70
2018-06-30T16:56:32.337Z,2.50
2018-06-30T16:59:02.448Z,2.60
2018-06-30T17:01:32.711Z,2.47
2018-06-30T17:04:02.881Z,3.00
2018-06-30T17:06:32.971Z,2.60
2018-06-30T17:09:03.149Z,2.90
2018-06-30T17:11:33.302Z,2.85
2018-06-30T17:14:03.387Z,2.80
2018-06-30T17:16:33.560Z,2.70
2018-06-30T17:19:03.634Z,2.35
2018-06-30T17:21:34.638Z,2.70
2018-06-30T17:24:05.051Z,2.77
2018-06-30T17:26:35.271Z,2.70
2018-06-30T17:29:05.416Z,2.53
2018-06-30T17:31:35.522Z,2.70
2018-06-30T17:34:05.612Z,2.70
2018-06-30T17:36:35.842Z,2.90
2018-06-30T17:39:09.651Z,2.67
2018-06-30T17:41:40.433Z,2.55
2018-06-30T17:44:10.916Z,2.92
2018-06-30T17:46:41.104Z,2.70
2018-06-30T17:49:11.278Z,2.70
2018-06-30T17:51:41.421Z,2.60
2018-06-30T17:54:11.677Z,2.80
2018-06-30T17:56:41.878Z,10.38
2018-06-30T17:59:12.096Z,7.75
2018-06-30T18:01:44.193Z,4.22
2018-06-30T18:04:14.273Z,3.00
2018-06-30T18:06:44.479Z,2.80
2018-06-30T18:09:14.544Z,2.80
2018-06-30T18:11:44.635Z,2.50
2018-06-30T18:14:15.717Z,2.50
2018-06-30T18:16:45.828Z,2.77
2018-06-30T18:19:15.909Z,2.62
2018-06-30T18:21:45.976Z,2.80
2018-06-30T18:24:16.022Z,2.60
2018-06-30T18:26:46.105Z,2.87
2018-06-30T18:29:16.153Z,2.60
2018-06-30T18:31:46.299Z,2.50
2018-06-30T18:34:16.319Z,2.43
2018-06-30T18:36:46.416Z,2.57
2018-06-30T18:39:16.518Z,2.65
2018-06-30T18:41:46.580Z,2.65
2018-06-30T18:44:16.644Z,2.20
2018-06-30T18:46:46.775Z,2.40
2018-06-30T18:49:16.824Z,2.60
2018-06-30T18:51:47.001Z,2.55
2018-06-30T18:54:17.095Z,2.75
2018-06-30T18:56:47.196Z,2.67
2018-06-30T18:59:17.326Z,2.37
2018-06-30T19:01:47.517Z,2.55
2018-06-30T19:04:17.582Z,2.40
2018-06-30T19:06:47.630Z,2.40
2018-06-30T19:09:17.696Z,2.37
2018-06-30T19:11:47.745Z,2.52
2018-06-30T19:14:17.779Z,2.37
2018-06-30T19:16:47.991Z,2.42
2018-06-30T19:19:18.026Z,2.40
2018-06-30T19:21:48.056Z,2.50
2018-06-30T19:24:18.090Z,2.33
2018-06-30T19:26:48.176Z,2.30
2018-06-30T19:29:18.270Z,2.58
2018-06-30T19:31:48.323Z,2.35
2018-06-30T19:34:18.364Z,3.22
2018-06-30T19:36:48.542Z,2.60
2018-06-30T19:39:18.575Z,2.43
2018-06-30T19:41:49.635Z,2.27
2018-06-30T19:44:19.720Z,2.10
2018-06-30T19:46:49.775Z,2.05
2018-06-30T19:49:19.840Z,2.10
2018-06-30T19:51:49.898Z,2.20
2018-06-30T19:54:19.960Z,2.40
2018-06-30T19:56:49.960Z,1.90
2018-06-30T19:59:20.149Z,1.92
2018-06-30T20:01:50.276Z,1.80
2018-06-30T20:04:20.344Z,2.20
2018-06-30T20:06:50.533Z,1.70
2018-06-30T20:09:20.641Z,1.50
2018-06-30T20:11:50.893Z,1.62
2018-06-30T20:14:20.931Z,1.60
2018-06-30T20:16:51.082Z,1.43
2018-06-30T20:19:21.143Z,1.82
2018-06-30T20:21:51.189Z,1.45
2018-06-30T20:24:21.310Z,1.40
2018-06-30T20:26:51.429Z,1.30
2018-06-30T20:29:21.726Z,1.40
2018-06-30T20:31:51.792Z,1.40
2018-06-30T20:34:21.904Z,1.30
2018-06-30T20:36:52.046Z,1.17
2018-06-30T20:39:22.158Z,1.20
2018-06-30T20:41:52.236Z,1.10
2018-06-30T20:44:22.369Z,1.12
2018-06-30T20:46:52.472Z,1.10
2018-06-30T20:49:22.611Z,1.10
2018-06-30T20:51:52.719Z,1.10
2018-06-30T20:54:22.859Z,0.98
2018-06-30T20:56:52.995Z,0.82
2018-06-30T20:59:23.219Z,1.02
2018-06-30T21:01:53.347Z,1.10
2018-06-30T21:04:23.569Z,1.05
2018-06-30T21:06:53.217Z,1.00
2018-06-30T21:09:23.390Z,0.90
2018-06-30T21:11:53.463Z,0.90
2018-06-30T21:14:23.649Z,0.90
2018-06-30T21:16:53.847Z,1.00
2018-06-30T21:19:23.921Z,1.00
2018-06-30T21:21:54.182Z,0.90
2018-06-30T21:24:24.371Z,1.00
2018-06-30T21:26:54.478Z,0.80
2018-06-30T21:29:24.587Z,0.80
2018-06-30T21:31:54.760Z,0.78
2018-06-30T21:34:25.122Z,0.85
2018-06-30T21:36:55.648Z,0.82
2018-06-30T21:39:25.720Z,0.82
2018-06-30T21:41:55.910Z,0.80
2018-06-30T21:44:26.032Z,0.70
2018-06-30T21:46:56.156Z,0.80
2018-06-30T21:49:26.216Z,0.93
2018-06-30T21:51:56.033Z,0.78
2018-06-30T21:54:26.093Z,0.82
2018-06-30T21:56:56.290Z,0.72
2018-06-30T21:59:26.387Z,0.70
2018-06-30T22:01:56.490Z,0.70
2018-06-30T22:04:26.490Z,0.80
2018-06-30T22:06:56.690Z,0.70
2018-06-30T22:09:26.807Z,0.80
2018-06-30T22:11:56.902Z,0.70
2018-06-30T22:14:27.536Z,0.78
2018-06-30T22:16:57.293Z,0.80
2018-06-30T22:19:27.395Z,0.80
2018-06-30T22:21:57.526Z,0.68
2018-06-30T22:24:27.670Z,0.70
2018-06-30T22:26:57.909Z,0.70
2018-06-30T22:29:28.011Z,0.70
2018-06-30T22:31:58.316Z,0.70
2018-06-30T22:34:28.362Z,0.60
2018-06-30T22:36:58.415Z,0.80
2018-06-30T22:40:37.262Z,0.62
2018-06-30T22:43:07.383Z,0.70
2018-06-30T22:45:37.527Z,0.60
2018-06-30T22:48:07.703Z,0.70
2018-06-30T22:50:37.804Z,0.70
2018-06-30T22:53:07.979Z,0.70
2018-06-30T22:55:38.067Z,0.60
2018-06-30T22:58:08.262Z,0.70
2018-06-30T23:00:38.390Z,0.70
2018-06-30T23:03:11.939Z,0.70
2018-06-30T23:05:42.838Z,0.60
2018-06-30T23:08:13.036Z,0.72
2018-06-30T23:10:43.138Z,0.70
2018-06-30T23:13:13.400Z,0.70
2018-06-30T23:15:43.522Z,0.72
2018-06-30T23:18:13.696Z,0.70
2018-06-30T23:20:43.915Z,0.73
2018-06-30T23:23:14.032Z,0.70
2018-06-30T23:25:44.162Z,0.70
2018-06-30T23:28:14.581Z,0.70
2018-06-30T23:30:44.707Z,0.80
2018-06-30T23:33:14.417Z,0.65
2018-06-30T23:35:44.611Z,0.78
2018-06-30T23:38:14.706Z,0.60
2018-06-30T23:40:44.761Z,0.70
2018-06-30T23:43:14.933Z,0.70
2018-06-30T23:45:45.028Z,0.50
2018-06-30T23:48:15.128Z,0.70
2018-06-30T23:50:45.213Z,0.70
2018-06-30T23:53:15.310Z,0.57
2018-06-30T23:55:45.434Z,0.75
2018-06-30T23:58:15.137Z,0.80
